Time;durP1;ratioP1;P1;durP2;ratioP2;P2;SDS_P1;SDS_P2;PMS_P1;PMS_P2;Temp;Humidity;BMP_temperature;BMP_pressure;BME280_temperature;BME280_humidity;BME280_pressure;Samples;Min_cycle;Max_cycle;Signal;HPM_P1;HPM_P2
2024/02/23 00:02:14;;;;;;;;;;;15.50;66.20;;;;;;5035982;28;20438;-76
2024/02/23 00:04:39;;;;;;;;;;;15.50;66.60;;;;;;5035817;28;19988;-76
2024/02/23 00:07:05;;;;;;;;;;;15.50;66.60;;;;;;5036029;28;19909;-76
2024/02/23 00:09:30;;;;;;;;;;;15.50;66.60;;;;;;5035936;28;19909;-76
2024/02/23 00:11:56;;;;;;;;;;;15.40;66.50;;;;;;5035900;28;20324;-76
2024/02/23 00:14:21;;;;;;;;;;;15.20;66.70;;;;;;5035788;28;19924;-76
2024/02/23 00:16:47;;;;;;;;;;;15.50;66.60;;;;;;5035786;28;19913;-76
2024/02/23 00:19:13;;;;;;;;;;;15.40;66.40;;;;;;5035580;28;19917;-76
2024/02/23 00:21:39;;;;;;;;;;;15.40;66.40;;;;;;5035619;28;19916;-76
2024/02/23 00:24:05;;;;;;;;;;;15.40;66.50;;;;;;5035659;28;19939;-76
2024/02/23 00:26:31;;;;;;;;;;;15.40;65.70;;;;;;5035976;28;19962;-76
2024/02/23 00:28:56;;;;;;;;;;;15.40;66.40;;;;;;5035598;28;19909;-76
2024/02/23 00:31:22;;;;;;;;;;;15.40;66.40;;;;;;5035410;28;20379;-76
2024/02/23 00:33:47;;;;;;;;;;;15.30;66.40;;;;;;5035417;28;19913;-76
2024/02/23 00:36:13;;;;;;;;;;;15.40;66.60;;;;;;5035333;28;19909;-76
2024/02/23 00:38:38;;;;;;;;;;;15.30;66.40;;;;;;5035383;28;19917;-75
2024/02/23 00:41:04;;;;;;;;;;;15.30;66.60;;;;;;5035304;28;19909;-76
2024/02/23 00:43:36;;;;;;;;;;;15.30;66.50;;;;;;5034842;28;19909;-76
2024/02/23 00:46:03;;;;;;;;;;;15.30;66.50;;;;;;5035488;28;20011;-76
2024/02/23 00:48:28;;;;;;;;;;;15.40;66.00;;;;;;5035166;28;19995;-76
2024/02/23 00:50:54;;;;;;;;;;;15.30;66.60;;;;;;5035048;28;19913;-76
2024/02/23 00:53:20;;;;;;;;;;;15.30;66.50;;;;;;5035075;28;19910;-76
2024/02/23 00:55:45;;;;;;;;;;;15.30;66.40;;;;;;5035715;28;19909;-76
2024/02/23 00:58:11;;;;;;;;;;;15.30;66.30;;;;;;5035252;28;20029;-76
2024/02/23 01:00:36;;;;;;;;;;;15.40;66.30;;;;;;5034919;28;19916;-76
2024/02/23 01:03:02;;;;;;;;;;;15.30;66.10;;;;;;5034657;28;19929;-76
2024/02/23 01:05:27;;;;;;;;;;;15.30;66.30;;;;;;5035047;28;19909;-76
2024/02/23 01:07:53;;;;;;;;;;;15.30;66.50;;;;;;5034850;28;19909;-72
2024/02/23 01:10:18;;;;;;;;;;;15.30;66.20;;;;;;5034655;28;19916;-72
2024/02/23 01:12:44;;;;;;;;;;;15.30;66.50;;;;;;5016756;28;20000;-72
2024/02/23 01:15:09;;;;;;;;;;;15.30;66.60;;;;;;5034608;28;19931;-72
2024/02/23 01:17:35;;;;;;;;;;;15.20;66.60;;;;;;5034547;28;19909;-71
2024/02/23 01:20:00;;;;;;;;;;;15.20;66.30;;;;;;5034773;28;19913;-72
2024/02/23 01:22:26;;;;;;;;;;;15.30;66.30;;;;;;5034498;28;19910;-71
2024/02/23 01:24:51;;;;;;;;;;;15.20;66.50;;;;;;5034486;28;20043;-72
2024/02/23 01:27:18;;;;;;;;;;;15.20;66.20;;;;;;5034475;28;19917;-76
2024/02/23 01:29:43;;;;;;;;;;;15.20;66.50;;;;;;5034373;28;19909;-76
2024/02/23 01:32:09;;;;;;;;;;;15.20;66.60;;;;;;5034353;28;20292;-76
2024/02/23 01:34:34;;;;;;;;;;;15.10;66.40;;;;;;5034217;28;19909;-76
2024/02/23 01:37:00;;;;;;;;;;;15.20;66.40;;;;;;5034308;28;19909;-76
2024/02/23 01:39:25;;;;;;;;;;;15.20;66.50;;;;;;5034215;28;19917;-76
2024/02/23 01:41:51;;;;;;;;;;;15.50;66.60;;;;;;5034625;28;20261;-76
2024/02/23 01:44:17;;;;;;;;;;;15.10;66.30;;;;;;5034040;28;19909;-76
2024/02/23 01:46:43;;;;;;;;;;;17.10;67.00;;;;;;5034324;28;19913;-76
2024/02/23 01:49:08;;;;;;;;;;;15.10;66.40;;;;;;5033962;28;19967;-76
2024/02/23 01:51:34;;;;;;;;;;;15.30;66.40;;;;;;5033865;28;19962;-76
2024/02/23 01:54:00;;;;;;;;;;;15.10;65.90;;;;;;5033873;28;19983;-76
2024/02/23 01:56:26;;;;;;;;;;;15.20;66.20;;;;;;5033288;28;19916;-76
2024/02/23 01:58:52;;;;;;;;;;;15.10;66.20;;;;;;5033916;28;19928;-76
2024/02/23 02:01:17;;;;;;;;;;;15.20;65.80;;;;;;5033740;28;19909;-76
2024/02/23 02:03:43;;;;;;;;;;;15.20;66.50;;;;;;5033588;28;19944;-76
2024/02/23 02:06:09;;;;;;;;;;;15.10;66.20;;;;;;5033625;28;20319;-76
2024/02/23 02:08:35;;;;;;;;;;;15.10;66.20;;;;;;5033603;28;19909;-76
2024/02/23 02:11:01;;;;;;;;;;;15.10;66.30;;;;;;5033991;28;19916;-76
2024/02/23 02:13:29;;;;;;;;;;;15.00;65.70;;;;;;5033789;28;19944;-76
2024/02/23 02:15:55;;;;;;;;;;;15.20;61.30;;;;;;5033482;28;19909;-76
2024/02/23 02:18:21;;;;;;;;;;;15.10;65.90;;;;;;5033366;28;19924;-76
2024/02/23 02:20:51;;;;;;;;;;;15.10;65.80;;;;;;5033415;28;19962;-76
2024/02/23 02:23:16;;;;;;;;;;;15.10;66.10;;;;;;5033645;28;19909;-76
2024/02/23 02:25:42;;;;;;;;;;;15.10;65.90;;;;;;5033255;28;20004;-76
2024/02/23 02:28:07;;;;;;;;;;;15.10;65.80;;;;;;5033252;28;19916;-76
2024/02/23 02:30:33;;;;;;;;;;;15.00;65.70;;;;;;5033388;28;20430;-76
2024/02/23 02:32:58;;;;;;;;;;;15.10;65.90;;;;;;5033145;28;19941;-76
2024/02/23 02:35:24;;;;;;;;;;;15.00;65.20;;;;;;5033115;28;19952;-76
2024/02/23 02:37:50;;;;;;;;;;;15.00;65.50;;;;;;5033507;28;19917;-76
2024/02/23 02:40:16;;;;;;;;;;;15.10;65.90;;;;;;5033020;28;19995;-76
2024/02/23 02:42:41;;;;;;;;;;;15.10;65.70;;;;;;5033054;28;20509;-76
2024/02/23 02:45:07;;;;;;;;;;;15.10;65.70;;;;;;5033111;28;19909;-76
2024/02/23 02:47:32;;;;;;;;;;;15.00;65.20;;;;;;5032946;28;19995;-76
2024/02/23 02:49:58;;;;;;;;;;;15.00;66.10;;;;;;5032874;28;19916;-76
2024/02/23 02:52:24;;;;;;;;;;;14.90;65.80;;;;;;5032857;28;19917;-76
2024/02/23 02:54:49;;;;;;;;;;;14.90;66.40;;;;;;5032784;28;20480;-75
2024/02/23 02:57:15;;;;;;;;;;;14.90;66.10;;;;;;5032784;28;19909;-76
2024/02/23 02:59:40;;;;;;;;;;;15.00;66.40;;;;;;5032673;28;19924;-76
2024/02/23 03:02:06;;;;;;;;;;;14.90;65.40;;;;;;5014896;28;20330;-76
2024/02/23 03:04:31;;;;;;;;;;;14.80;66.20;;;;;;5032594;28;20016;-76
2024/02/23 03:06:57;;;;;;;;;;;15.00;65.80;;;;;;5033003;28;19917;-76
2024/02/23 03:09:23;;;;;;;;;;;14.90;66.40;;;;;;5032823;28;19909;-76
2024/02/23 03:11:49;;;;;;;;;;;14.90;66.20;;;;;;5032838;28;19924;-76
2024/02/23 03:14:17;;;;;;;;;;;14.90;66.30;;;;;;5032752;28;20287;-76
2024/02/23 03:16:42;;;;;;;;;;;15.00;66.00;;;;;;5032500;28;19913;-76
2024/02/23 03:19:08;;;;;;;;;;;14.90;66.20;;;;;;5032450;28;19924;-76
2024/02/23 03:21:33;;;;;;;;;;;15.00;66.40;;;;;;5032419;28;19909;-76
2024/02/23 03:23:59;;;;;;;;;;;14.90;66.30;;;;;;5032367;28;20318;-76
2024/02/23 03:26:24;;;;;;;;;;;14.80;66.00;;;;;;5032369;28;19909;-76
2024/02/23 03:28:50;;;;;;;;;;;14.90;66.10;;;;;;5032422;28;20368;-76
2024/02/23 03:31:15;;;;;;;;;;;14.90;66.10;;;;;;5032321;28;19916;-76
2024/02/23 03:33:41;;;;;;;;;;;14.90;65.90;;;;;;5032449;28;19910;-76
2024/02/23 03:36:06;;;;;;;;;;;14.80;65.60;;;;;;5032802;28;19909;-76
2024/02/23 03:38:33;;;;;;;;;;;14.90;65.40;;;;;;5032208;28;19967;-76
2024/02/23 03:40:59;;;;;;;;;;;14.80;65.60;;;;;;5032221;28;19924;-76
2024/02/23 03:43:25;;;;;;;;;;;14.80;65.90;;;;;;5032186;28;19913;-76
2024/02/23 03:45:50;;;;;;;;;;;14.80;65.50;;;;;;5032232;28;19913;-76
2024/02/23 03:48:16;;;;;;;;;;;14.80;66.00;;;;;;5032312;28;19932;-76
2024/02/23 03:50:41;;;;;;;;;;;15.00;65.80;;;;;;5032238;28;20007;-76
2024/02/23 03:53:07;;;;;;;;;;;14.80;65.90;;;;;;5032387;28;19909;-76
2024/02/23 03:55:32;;;;;;;;;;;14.90;66.00;;;;;;5032192;28;19917;-76
2024/02/23 03:57:57;;;;;;;;;;;14.70;65.80;;;;;;5032101;28;19959;-76
2024/02/23 04:00:23;;;;;;;;;;;14.80;65.80;;;;;;5032041;28;19909;-76
2024/02/23 04:02:49;;;;;;;;;;;14.80;65.50;;;;;;5031887;28;19944;-76
2024/02/23 04:05:14;;;;;;;;;;;14.80;65.50;;;;;;5032507;28;20390;-76
2024/02/23 04:07:40;;;;;;;;;;;14.80;65.60;;;;;;5032091;28;19909;-76
2024/02/23 04:10:06;;;;;;;;;;;14.70;65.60;;;;;;5031989;28;19909;-76
2024/02/23 04:12:31;;;;;;;;;;;14.70;63.90;;;;;;5031908;28;20020;-76
2024/02/23 04:14:59;;;;;;;;;;;14.80;63.10;;;;;;5031554;28;20220;-76
2024/02/23 04:17:24;;;;;;;;;;;14.70;66.00;;;;;;5032029;28;20405;-76
2024/02/23 04:19:50;;;;;;;;;;;14.70;65.70;;;;;;5035437;28;20287;-76
2024/02/23 04:22:15;;;;;;;;;;;14.70;65.40;;;;;;5035666;28;19909;-76
2024/02/23 04:24:41;;;;;;;;;;;14.70;65.50;;;;;;5035601;28;19937;-76
2024/02/23 04:27:07;;;;;;;;;;;14.70;65.20;;;;;;5035571;28;19955;-76
2024/02/23 04:29:33;;;;;;;;;;;14.70;65.40;;;;;;5035399;28;19982;-76
2024/02/23 04:32:02;;;;;;;;;;;14.50;64.50;;;;;;5036289;28;19937;-76
2024/02/23 04:34:28;;;;;;;;;;;14.70;60.80;;;;;;5035269;28;19909;-76
2024/02/23 04:36:54;;;;;;;;;;;14.70;65.30;;;;;;5035391;28;20016;-76
2024/02/23 04:39:19;;;;;;;;;;;14.60;65.70;;;;;;5035167;28;19921;-76
2024/02/23 04:41:45;;;;;;;;;;;14.60;65.30;;;;;;5035329;28;19916;-76
2024/02/23 04:44:10;;;;;;;;;;;14.70;65.40;;;;;;5035333;28;19916;-76
2024/02/23 04:46:36;;;;;;;;;;;14.60;65.60;;;;;;5035474;28;20265;-75
2024/02/23 04:49:02;;;;;;;;;;;15.00;65.50;;;;;;5035232;28;19913;-76
2024/02/23 04:51:27;;;;;;;;;;;14.60;65.60;;;;;;5035306;28;19995;-76
2024/02/23 04:53:53;;;;;;;;;;;14.60;65.70;;;;;;5035353;28;19959;-76
2024/02/23 04:56:18;;;;;;;;;;;14.60;65.40;;;;;;5034974;28;20368;-76
2024/02/23 04:58:44;;;;;;;;;;;14.60;65.20;;;;;;5034828;28;20261;-76
2024/02/23 05:01:10;;;;;;;;;;;14.70;65.20;;;;;;5035678;28;20007;-76
2024/02/23 05:03:36;;;;;;;;;;;14.60;65.20;;;;;;5034615;28;19921;-76
2024/02/23 05:06:02;;;;;;;;;;;14.70;65.30;;;;;;5034852;28;20500;-76
2024/02/23 05:08:30;;;;;;;;;;;14.60;64.80;;;;;;5034640;28;19935;-76
2024/02/23 05:10:55;;;;;;;;;;;14.60;65.40;;;;;;5034701;28;19909;-76
2024/02/23 05:13:21;;;;;;;;;;;14.80;65.10;;;;;;5035069;28;19909;-76
2024/02/23 05:15:46;;;;;;;;;;;14.80;65.10;;;;;;5034564;28;19910;-76
2024/02/23 05:18:12;;;;;;;;;;;14.60;65.00;;;;;;5034527;28;19921;-76
2024/02/23 05:20:37;;;;;;;;;;;14.60;65.30;;;;;;5016670;28;20291;-76
2024/02/23 05:23:03;;;;;;;;;;;14.70;65.30;;;;;;5034445;28;19916;-76
2024/02/23 05:25:28;;;;;;;;;;;14.60;64.40;;;;;;5034679;28;20004;-76
2024/02/23 05:27:54;;;;;;;;;;;14.60;64.90;;;;;;5034421;28;19913;-76
2024/02/23 05:30:19;;;;;;;;;;;14.60;64.90;;;;;;5033614;28;20035;-76
2024/02/23 05:32:45;;;;;;;;;;;14.60;65.30;;;;;;5034472;28;19909;-76
2024/02/23 05:35:10;;;;;;;;;;;14.70;66.00;;;;;;5034300;28;19910;-76
2024/02/23 05:37:37;;;;;;;;;;;14.60;65.00;;;;;;5034042;28;19910;-76
2024/02/23 05:40:07;;;;;;;;;;;14.60;65.40;;;;;;5034348;28;19924;-76
2024/02/23 05:42:33;;;;;;;;;;;14.60;65.30;;;;;;5034067;28;20367;-72
2024/02/23 05:44:58;;;;;;;;;;;14.60;65.20;;;;;;5033986;28;19932;-73
2024/02/23 05:47:24;;;;;;;;;;;14.60;65.10;;;;;;5033993;28;19909;-73
2024/02/23 05:49:50;;;;;;;;;;;14.60;65.40;;;;;;5033864;28;20358;-73
2024/02/23 05:52:15;;;;;;;;;;;14.60;65.30;;;;;;5033943;28;20295;-73
2024/02/23 05:54:41;;;;;;;;;;;14.60;65.30;;;;;;5033793;28;19917;-73
2024/02/23 05:57:06;;;;;;;;;;;14.60;65.00;;;;;;5033777;28;20000;-73
2024/02/23 05:59:32;;;;;;;;;;;14.60;65.20;;;;;;5034449;28;20489;-73
2024/02/23 06:01:57;;;;;;;;;;;14.60;64.90;;;;;;5033602;28;20414;-73
2024/02/23 06:04:23;;;;;;;;;;;14.60;65.20;;;;;;5033507;28;19921;-72
2024/02/23 06:06:49;;;;;;;;;;;14.60;65.70;;;;;;5033608;28;19960;-73
2024/02/23 06:09:15;;;;;;;;;;;14.60;65.30;;;;;;5033654;28;19998;-73
2024/02/23 06:11:41;;;;;;;;;;;14.60;65.40;;;;;;5033750;28;19909;-73
2024/02/23 06:14:07;;;;;;;;;;;14.70;65.30;;;;;;5033573;28;20000;-73
2024/02/23 06:16:33;;;;;;;;;;;14.70;65.20;;;;;;5033444;28;19941;-72
2024/02/23 06:18:58;;;;;;;;;;;14.60;65.20;;;;;;5033281;28;19917;-73
2024/02/23 06:21:24;;;;;;;;;;;14.70;65.50;;;;;;5033292;28;20233;-73
2024/02/23 06:23:49;;;;;;;;;;;14.50;65.30;;;;;;5033345;28;19949;-72
2024/02/23 06:26:15;;;;;;;;;;;14.60;65.30;;;;;;5035343;28;19909;-72
2024/02/23 06:28:43;;;;;;;;;;;14.60;65.10;;;;;;5040618;28;20363;-73
2024/02/23 06:31:09;;;;;;;;;;;14.60;61.40;;;;;;5033217;28;19909;-73
2024/02/23 06:33:35;;;;;;;;;;;14.50;65.00;;;;;;5033184;28;19916;-73
2024/02/23 06:36:00;;;;;;;;;;;14.60;65.30;;;;;;5032994;28;19916;-72
2024/02/23 06:38:26;;;;;;;;;;;14.60;65.20;;;;;;5032983;28;19917;-72
2024/02/23 06:40:52;;;;;;;;;;;14.50;65.40;;;;;;5032540;28;19920;-74
2024/02/23 06:43:18;;;;;;;;;;;14.60;65.00;;;;;;5032868;28;19913;-73
2024/02/23 06:45:43;;;;;;;;;;;14.60;65.10;;;;;;5032858;28;19909;-74
2024/02/23 06:48:09;;;;;;;;;;;14.60;64.90;;;;;;5032860;28;20367;-74
2024/02/23 06:50:35;;;;;;;;;;;14.50;64.90;;;;;;5032763;28;19945;-73
2024/02/23 06:53:00;;;;;;;;;;;14.50;65.20;;;;;;5032779;28;19931;-73
2024/02/23 06:55:26;;;;;;;;;;;14.50;65.00;;;;;;5033268;28;19996;-73
2024/02/23 06:57:51;;;;;;;;;;;14.50;65.00;;;;;;5032905;28;19917;-73
2024/02/23 07:00:17;;;;;;;;;;;14.60;65.00;;;;;;5032964;28;19916;-74
2024/02/23 07:02:42;;;;;;;;;;;14.50;64.40;;;;;;5033514;28;20016;-73
2024/02/23 07:05:08;;;;;;;;;;;14.50;65.00;;;;;;5032709;28;19916;-72
2024/02/23 07:07:34;;;;;;;;;;;14.40;64.10;;;;;;5032687;28;19910;-72
2024/02/23 07:10:00;;;;;;;;;;;14.50;65.00;;;;;;5032571;28;19932;-72
2024/02/23 07:12:27;;;;;;;;;;;14.50;65.00;;;;;;5032822;28;19955;-72
2024/02/23 07:14:53;;;;;;;;;;;14.50;65.20;;;;;;5032545;28;19910;-73
2024/02/23 07:17:19;;;;;;;;;;;14.50;65.40;;;;;;5032456;28;19919;-72
2024/02/23 07:19:44;;;;;;;;;;;14.50;65.50;;;;;;5032565;28;20012;-72
2024/02/23 07:22:10;;;;;;;;;;;14.40;65.50;;;;;;5032390;28;19955;-73
2024/02/23 07:24:39;;;;;;;;;;;14.40;65.60;;;;;;5032907;28;20502;-73
2024/02/23 07:27:04;;;;;;;;;;;14.50;66.10;;;;;;5032318;28;19909;-72
2024/02/23 07:29:30;;;;;;;;;;;14.40;65.80;;;;;;5032312;28;20344;-72
2024/02/23 07:31:55;;;;;;;;;;;14.50;65.60;;;;;;5032310;28;19909;-72
2024/02/23 07:34:21;;;;;;;;;;;14.40;65.60;;;;;;5032337;28;19953;-73
2024/02/23 07:36:46;;;;;;;;;;;14.40;66.10;;;;;;5032454;28;19909;-73
2024/02/23 07:39:12;;;;;;;;;;;14.50;66.20;;;;;;5032445;28;19921;-73
2024/02/23 07:41:37;;;;;;;;;;;14.80;66.30;;;;;;5032237;28;19944;-73
2024/02/23 07:44:03;;;;;;;;;;;14.40;66.00;;;;;;5014465;28;19963;-72
2024/02/23 07:46:28;;;;;;;;;;;14.50;65.60;;;;;;5032160;28;19916;-72
2024/02/23 07:48:54;;;;;;;;;;;14.40;66.00;;;;;;5032137;28;20360;-73
2024/02/23 07:51:19;;;;;;;;;;;14.50;66.10;;;;;;5032152;28;19909;-73
2024/02/23 07:53:45;;;;;;;;;;;14.40;66.00;;;;;;5034355;28;19962;-72
2024/02/23 07:56:11;;;;;;;;;;;14.50;65.70;;;;;;5036237;28;19916;-73
2024/02/23 07:58:37;;;;;;;;;;;14.40;65.80;;;;;;5018039;28;19943;-73
2024/02/23 08:01:02;;;;;;;;;;;14.50;66.10;;;;;;5035932;28;19909;-73
2024/02/23 08:03:28;;;;;;;;;;;14.50;64.70;;;;;;5035604;28;19921;-73
2024/02/23 08:05:53;;;;;;;;;;;14.40;65.70;;;;;;5035870;28;19920;-73
2024/02/23 08:08:19;;;;;;;;;;;14.40;66.00;;;;;;5036029;28;19915;-73
2024/02/23 08:10:45;;;;;;;;;;;14.50;65.70;;;;;;5036601;28;19909;-73
2024/02/23 08:13:10;;;;;;;;;;;14.40;65.90;;;;;;5035661;28;20348;-73
2024/02/23 08:15:36;;;;;;;;;;;14.50;65.60;;;;;;5035579;28;19999;-73
2024/02/23 08:18:02;;;;;;;;;;;14.40;66.00;;;;;;5035270;28;19917;-73
2024/02/23 08:20:27;;;;;;;;;;;14.50;65.70;;;;;;5034511;28;20054;-73
2024/02/23 08:22:53;;;;;;;;;;;14.40;65.60;;;;;;5034496;28;20290;-73
2024/02/23 08:25:18;;;;;;;;;;;14.40;65.90;;;;;;5035597;28;19909;-73
2024/02/23 08:27:44;;;;;;;;;;;14.40;65.50;;;;;;5035214;28;19963;-73
2024/02/23 08:30:10;;;;;;;;;;;14.50;66.10;;;;;;5035402;28;20403;-72
2024/02/23 08:32:36;;;;;;;;;;;14.40;64.60;;;;;;5035215;28;19910;-72
2024/02/23 08:35:02;;;;;;;;;;;14.40;65.90;;;;;;5035771;28;19996;-73
2024/02/23 08:37:28;;;;;;;;;;;14.40;65.40;;;;;;5042131;28;20414;-72
2024/02/23 08:39:54;;;;;;;;;;;14.30;65.60;;;;;;5035101;28;20015;-73
2024/02/23 08:42:19;;;;;;;;;;;14.40;65.80;;;;;;5035124;28;20256;-74
2024/02/23 08:44:45;;;;;;;;;;;14.40;65.80;;;;;;5035065;28;19916;-74
2024/02/23 08:47:10;;;;;;;;;;;14.40;66.00;;;;;;5035305;28;20319;-73
2024/02/23 08:49:36;;;;;;;;;;;14.40;65.70;;;;;;5034951;28;19963;-73
2024/02/23 08:52:02;;;;;;;;;;;14.40;65.80;;;;;;5035034;28;20016;-72
2024/02/23 08:54:27;;;;;;;;;;;14.40;65.60;;;;;;5035062;28;19909;-74
2024/02/23 08:56:53;;;;;;;;;;;14.40;65.50;;;;;;5035334;28;19910;-74
2024/02/23 08:59:18;;;;;;;;;;;14.40;65.70;;;;;;5034686;28;19924;-73
2024/02/23 09:01:44;;;;;;;;;;;14.40;65.20;;;;;;5034677;28;19909;-73
2024/02/23 09:04:10;;;;;;;;;;;14.40;65.60;;;;;;5034289;28;19921;-74
2024/02/23 09:06:35;;;;;;;;;;;14.20;65.50;;;;;;5034646;28;19913;-74
2024/02/23 09:09:01;;;;;;;;;;;14.30;65.10;;;;;;5034991;28;19932;-74
2024/02/23 09:11:26;;;;;;;;;;;12.90;64.30;;;;;;5034506;28;19916;-73
2024/02/23 09:13:52;;;;;;;;;;;14.30;65.40;;;;;;5034564;28;20004;-73
2024/02/23 09:16:18;;;;;;;;;;;14.30;65.50;;;;;;5034587;28;20283;-73
2024/02/23 09:18:44;;;;;;;;;;;14.60;65.20;;;;;;5034350;28;20494;-75
2024/02/23 09:21:10;;;;;;;;;;;14.50;65.20;;;;;;5035478;28;19990;-74
2024/02/23 09:23:35;;;;;;;;;;;14.30;65.10;;;;;;5039031;28;19909;-73
2024/02/23 09:26:01;;;;;;;;;;;14.30;65.50;;;;;;5034815;28;19913;-73
2024/02/23 09:28:26;;;;;;;;;;;14.30;65.20;;;;;;5034236;28;19909;-74
2024/02/23 09:30:52;;;;;;;;;;;14.30;65.20;;;;;;5034175;28;19917;-74
2024/02/23 09:33:17;;;;;;;;;;;14.30;65.10;;;;;;5034512;28;20368;-74
2024/02/23 09:35:43;;;;;;;;;;;14.50;65.20;;;;;;5034097;28;19909;-74
2024/02/23 09:38:08;;;;;;;;;;;14.30;65.20;;;;;;5034060;28;19956;-75
2024/02/23 09:40:34;;;;;;;;;;;14.30;65.20;;;;;;5034333;28;19909;-75
2024/02/23 09:42:59;;;;;;;;;;;14.40;65.20;;;;;;5033923;28;19995;-74
2024/02/23 09:45:26;;;;;;;;;;;14.20;65.20;;;;;;5033890;28;19948;-74
2024/02/23 09:47:53;;;;;;;;;;;14.30;65.20;;;;;;5034165;28;20120;-74
2024/02/23 09:50:21;;;;;;;;;;;14.30;65.40;;;;;;5033913;28;19909;-74
2024/02/23 09:52:46;;;;;;;;;;;14.20;65.20;;;;;;5033786;28;19956;-74
2024/02/23 09:55:12;;;;;;;;;;;14.20;65.10;;;;;;5034478;28;20035;-74
2024/02/23 09:57:39;;;;;;;;;;;14.20;64.70;;;;;;5034017;28;20368;-74
2024/02/23 10:00:06;;;;;;;;;;;14.10;65.50;;;;;;5033601;28;19917;-74
2024/02/23 10:02:32;;;;;;;;;;;14.20;64.90;;;;;;5015619;28;19916;-74
2024/02/23 10:04:59;;;;;;;;;;;14.20;65.30;;;;;;5033630;28;19944;-77
2024/02/23 10:07:27;;;;;;;;;;;14.20;64.70;;;;;;5033551;28;19932;-77
2024/02/23 10:09:53;;;;;;;;;;;14.20;65.20;;;;;;5033495;28;19913;-78
2024/02/23 10:12:18;;;;;;;;;;;14.10;65.20;;;;;;5033433;28;19909;-77
2024/02/23 10:14:44;;;;;;;;;;;14.10;64.90;;;;;;5033331;28;19921;-77
2024/02/23 10:17:09;;;;;;;;;;;14.10;65.30;;;;;;5032760;28;20299;-77
2024/02/23 10:19:35;;;;;;;;;;;14.10;64.80;;;;;;5033107;28;19971;-77
2024/02/23 10:22:01;;;;;;;;;;;14.10;65.40;;;;;;5033536;28;19964;-77
2024/02/23 10:24:27;;;;;;;;;;;14.10;65.10;;;;;;5033494;28;19909;-77
2024/02/23 10:26:53;;;;;;;;;;;14.10;65.60;;;;;;5033429;28;20348;-77
2024/02/23 10:29:19;;;;;;;;;;;14.20;65.40;;;;;;5033493;28;19909;-77
2024/02/23 10:31:47;;;;;;;;;;;14.10;65.30;;;;;;5033087;28;19909;-77
2024/02/23 10:34:14;;;;;;;;;;;14.10;65.50;;;;;;5033072;28;20030;-77
2024/02/23 10:36:42;;;;;;;;;;;14.00;65.50;;;;;;5032966;28;19963;-78
2024/02/23 10:39:09;;;;;;;;;;;14.00;65.70;;;;;;5032924;28;19979;-78
2024/02/23 10:41:35;;;;;;;;;;;14.00;65.50;;;;;;5033318;28;19956;-79
2024/02/23 10:44:03;;;;;;;;;;;14.00;65.30;;;;;;5033187;28;19909;-79
2024/02/23 10:46:30;;;;;;;;;;;14.00;65.20;;;;;;5033074;28;20257;-79
2024/02/23 10:48:57;;;;;;;;;;;14.10;65.50;;;;;;5015474;28;19913;-79
2024/02/23 10:51:24;;;;;;;;;;;14.10;65.50;;;;;;5015539;28;19995;-78
2024/02/23 10:53:52;;;;;;;;;;;14.10;65.50;;;;;;5015635;28;20066;-79
2024/02/23 10:56:18;;;;;;;;;;;14.20;64.30;;;;;;5015045;28;19914;-78
2024/02/23 10:58:43;;;;;;;;;;;14.10;65.20;;;;;;5015423;28;19928;-79
2024/02/23 11:01:10;;;;;;;;;;;14.20;64.70;;;;;;4998655;28;19913;-78
2024/02/23 11:03:37;;;;;;;;;;;14.20;64.50;;;;;;5015080;28;20001;-73
2024/02/23 11:06:07;;;;;;;;;;;14.30;65.00;;;;;;5032852;28;20015;-73
2024/02/23 11:08:33;;;;;;;;;;;14.30;60.30;;;;;;5014971;28;19924;-74
2024/02/23 11:11:07;;;;;;;;;;;14.40;64.90;;;;;;5015216;28;19971;-74
2024/02/23 11:13:36;;;;;;;;;;;14.30;64.30;;;;;;5015019;28;19971;-73
2024/02/23 11:16:05;;;;;;;;;;;14.40;60.00;;;;;;5014741;28;19980;-73
2024/02/23 11:18:34;;;;;;;;;;;14.50;63.80;;;;;;5015719;28;19921;-75
2024/02/23 11:21:01;;;;;;;;;;;14.60;64.40;;;;;;5015525;28;19913;-75
2024/02/23 11:23:27;;;;;;;;;;;14.50;64.50;;;;;;5015230;28;19914;-79
2024/02/23 11:26:04;;;;;;;;;;;14.60;63.80;;;;;;5014822;28;19913;-74
2024/02/23 11:28:29;;;;;;;;;;;14.60;59.90;;;;;;5013819;28;19914;-75
2024/02/23 11:30:55;;;;;;;;;;;14.60;64.50;;;;;;5014785;28;20324;-75
2024/02/23 11:33:27;;;;;;;;;;;14.70;64.70;;;;;;5014722;28;19913;-76
2024/02/23 11:35:53;;;;;;;;;;;14.60;60.20;;;;;;5014623;28;19917;-76
2024/02/23 11:38:20;;;;;;;;;;;14.50;64.90;;;;;;5014923;28;19921;-75
2024/02/23 11:40:52;;;;;;;;;;;14.50;65.20;;;;;;5032320;28;19917;-74
2024/02/23 11:43:18;;;;;;;;;;;14.50;65.20;;;;;;5015165;28;19913;-75
2024/02/23 11:45:46;;;;;;;;;;;14.50;65.20;;;;;;5015418;28;19913;-73
2024/02/23 11:48:12;;;;;;;;;;;14.60;65.80;;;;;;5032287;28;19948;-74
2024/02/23 11:50:37;;;;;;;;;;;14.50;65.70;;;;;;5014506;28;20376;-75
2024/02/23 11:53:06;;;;;;;;;;;14.80;65.50;;;;;;5032419;28;19928;-74
2024/02/23 11:55:32;;;;;;;;;;;13.10;64.70;;;;;;5015143;28;19913;-73
2024/02/23 11:57:57;;;;;;;;;;;14.80;64.70;;;;;;5014708;28;19913;-73
2024/02/23 12:00:23;;;;;;;;;;;14.90;64.50;;;;;;5014546;28;19920;-74
2024/02/23 12:02:50;;;;;;;;;;;15.40;63.40;;;;;;5014129;28;20331;-73
2024/02/23 12:05:16;;;;;;;;;;;15.20;63.70;;;;;;5032032;28;20299;-72
2024/02/23 12:07:41;;;;;;;;;;;15.30;63.50;;;;;;5032257;28;19916;-73
2024/02/23 12:10:07;;;;;;;;;;;15.50;63.30;;;;;;5031928;28;19916;-72
2024/02/23 12:12:33;;;;;;;;;;;15.50;61.40;;;;;;5032205;28;19919;-73
2024/02/23 12:14:58;;;;;;;;;;;15.60;62.50;;;;;;5032468;28;19913;-73
2024/02/23 12:17:26;;;;;;;;;;;15.70;62.00;;;;;;5031919;28;19917;-76
2024/02/23 12:20:01;;;;;;;;;;;15.80;62.20;;;;;;5031937;28;20479;-73
2024/02/23 12:22:27;;;;;;;;;;;15.90;57.90;;;;;;5031790;28;19910;-72
2024/02/23 12:24:52;;;;;;;;;;;15.80;62.10;;;;;;5031091;28;20360;-73
2024/02/23 12:27:18;;;;;;;;;;;15.90;62.40;;;;;;5031758;28;19909;-72
2024/02/23 12:29:51;;;;;;;;;;;15.80;62.50;;;;;;5031862;28;20347;-73
2024/02/23 12:32:19;;;;;;;;;;;15.70;58.20;;;;;;5030572;28;20299;-73
2024/02/23 12:34:45;;;;;;;;;;;15.90;62.10;;;;;;5029803;28;20269;-73
2024/02/23 12:37:10;;;;;;;;;;;15.90;62.60;;;;;;5029925;28;20141;-73
2024/02/23 12:39:35;;;;;;;;;;;15.90;62.70;;;;;;5031282;28;20337;-73
2024/02/23 12:42:01;;;;;;;;;;;15.80;62.70;;;;;;5033625;28;19909;-73
2024/02/23 12:44:27;;;;;;;;;;;15.80;63.10;;;;;;5033860;28;19909;-73
2024/02/23 12:46:53;;;;;;;;;;;15.70;63.40;;;;;;5034691;28;19909;-77
2024/02/23 12:49:19;;;;;;;;;;;15.60;64.10;;;;;;5035045;28;20279;-77
2024/02/23 12:51:45;;;;;;;;;;;15.60;63.60;;;;;;5034996;28;19909;-77
2024/02/23 12:54:10;;;;;;;;;;;15.50;63.90;;;;;;5035012;28;19909;-77
2024/02/23 12:56:36;;;;;;;;;;;15.60;64.10;;;;;;5034931;28;19909;-77
2024/02/23 12:59:01;;;;;;;;;;;15.40;64.20;;;;;;5035131;28;19917;-77
2024/02/23 13:01:27;;;;;;;;;;;15.30;64.10;;;;;;5035233;28;20008;-77
2024/02/23 13:03:53;;;;;;;;;;;15.40;64.60;;;;;;5034589;28;19932;-77
2024/02/23 13:06:18;;;;;;;;;;;15.30;64.40;;;;;;5034973;28;19916;-78
2024/02/23 13:08:44;;;;;;;;;;;15.30;64.70;;;;;;5034667;28;20306;-77
2024/02/23 13:11:09;;;;;;;;;;;15.40;64.90;;;;;;5034717;28;19909;-77
2024/02/23 13:13:35;;;;;;;;;;;15.20;64.90;;;;;;5034725;28;19917;-77
2024/02/23 13:16:00;;;;;;;;;;;15.30;65.00;;;;;;5034637;28;20379;-77
2024/02/23 13:18:26;;;;;;;;;;;15.20;64.90;;;;;;5034419;28;19925;-77
2024/02/23 13:20:51;;;;;;;;;;;15.30;65.10;;;;;;5034625;28;19920;-77
2024/02/23 13:23:17;;;;;;;;;;;15.30;64.90;;;;;;5034493;28;19976;-77
2024/02/23 13:25:44;;;;;;;;;;;15.30;64.80;;;;;;5034702;28;19992;-77
2024/02/23 13:28:09;;;;;;;;;;;15.30;65.10;;;;;;5034361;28;20423;-77
2024/02/23 13:30:35;;;;;;;;;;;15.30;65.00;;;;;;5034858;28;20004;-77
2024/02/23 13:33:02;;;;;;;;;;;15.30;65.20;;;;;;5034622;28;20374;-78
2024/02/23 13:35:27;;;;;;;;;;;15.50;65.20;;;;;;5034152;28;19913;-77
2024/02/23 13:37:53;;;;;;;;;;;15.30;64.90;;;;;;5034405;28;19915;-76
2024/02/23 13:40:18;;;;;;;;;;;15.20;65.30;;;;;;5034262;28;20005;-77
2024/02/23 13:42:52;;;;;;;;;;;15.30;65.20;;;;;;5034411;28;20011;-77
2024/02/23 13:45:18;;;;;;;;;;;13.60;62.80;;;;;;5016385;28;20368;-77
2024/02/23 13:47:54;;;;;;;;;;;15.30;64.70;;;;;;5034275;28;19909;-77
2024/02/23 13:50:20;;;;;;;;;;;15.50;64.90;;;;;;5033402;28;20084;-77
2024/02/23 13:52:46;;;;;;;;;;;15.40;64.50;;;;;;5033800;28;20060;-77
2024/02/23 13:55:14;;;;;;;;;;;15.50;64.30;;;;;;5033750;28;20360;-77
2024/02/23 13:57:40;;;;;;;;;;;15.40;60.80;;;;;;5033754;28;20400;-78
2024/02/23 14:00:08;;;;;;;;;;;15.40;64.40;;;;;;5034411;28;19957;-77
2024/02/23 14:02:34;;;;;;;;;;;15.40;64.40;;;;;;5033412;28;19968;-77
2024/02/23 14:05:02;;;;;;;;;;;15.40;63.80;;;;;;5033651;28;19932;-78
2024/02/23 14:07:28;;;;;;;;;;;15.30;65.00;;;;;;5033444;28;19913;-77
2024/02/23 14:09:53;;;;;;;;;;;15.30;65.10;;;;;;5033408;28;20280;-77